Time;durP1;ratioP1;P1;durP2;ratioP2;P2;SDS_P1;SDS_P2;PMS_P1;PMS_P2;Temp;Humidity;BMP_temperature;BMP_pressure;BME280_temperature;BME280_humidity;BME280_pressure;Samples;Min_cycle;Max_cycle;Signal;HPM_P1;HPM_P2
2023/04/27 00:01:10;;;;;;;5.38;2.95;;;;;;;8.58;61.37;100117.50;4958315;28;20047;-88
2023/04/27 00:03:37;;;;;;;3.30;2.63;;;;;;;8.56;61.47;100116.78;4936209;28;20098;-87
2023/04/27 00:06:04;;;;;;;5.38;3.08;;;;;;;8.64;60.99;100111.75;4952015;28;20061;-87
2023/04/27 00:08:31;;;;;;;7.80;3.90;;;;;;;8.58;61.31;100117.50;4963103;28;20487;-87
2023/04/27 00:10:58;;;;;;;7.18;2.90;;;;;;;8.46;62.08;100109.50;4931719;28;20043;-87
2023/04/27 00:13:25;;;;;;;5.05;2.90;;;;;;;8.48;61.87;100098.81;4950239;28;20053;-88
2023/04/27 00:15:52;;;;;;;4.95;3.08;;;;;;;8.48;62.10;100099.66;4960074;28;20050;-88
2023/04/27 00:18:19;;;;;;;4.40;2.88;;;;;;;8.40;62.36;100102.06;4924118;28;20051;-88
2023/04/27 00:20:46;;;;;;;4.28;3.03;;;;;;;8.39;61.95;100100.34;4932468;28;20121;-88
2023/04/27 00:23:13;;;;;;;6.28;3.47;;;;;;;8.34;62.74;100102.47;4949224;28;20465;-87
2023/04/27 00:25:40;;;;;;;5.95;3.08;;;;;;;8.33;62.54;100094.66;4935670;28;20043;-90
2023/04/27 00:28:07;;;;;;;8.30;3.25;;;;;;;8.31;62.57;100088.63;4934931;28;20494;-87
2023/04/27 00:30:34;;;;;;;9.50;3.58;;;;;;;8.24;62.34;100091.75;4940463;28;20043;-88
2023/04/27 00:33:01;;;;;;;5.38;3.28;;;;;;;8.30;62.91;100093.09;4946719;28;20458;-89
2023/04/27 00:35:28;;;;;;;5.30;3.30;;;;;;;8.24;62.66;100096.16;4944802;28;20043;-88
2023/04/27 00:37:57;;;;;;;7.70;3.40;;;;;;;8.27;62.05;100093.31;4945683;28;20042;-87
2023/04/27 00:40:23;;;;;;;4.50;3.15;;;;;;;8.21;62.98;100088.47;4975924;28;20045;-87
2023/04/27 00:42:51;;;;;;;6.03;3.13;;;;;;;8.19;63.08;100093.91;4932612;28;20514;-89
2023/04/27 00:45:18;;;;;;;8.85;3.65;;;;;;;8.23;63.06;100090.03;4931889;28;20061;-89
2023/04/27 00:47:45;;;;;;;8.13;2.78;;;;;;;8.22;62.87;100091.00;4918713;28;20043;-87
2023/04/27 00:50:12;;;;;;;4.53;2.92;;;;;;;8.25;62.46;100090.78;4930256;28;20521;-89
2023/04/27 00:52:38;;;;;;;7.13;2.95;;;;;;;8.15;63.04;100088.94;4948831;28;20134;-88
2023/04/27 00:55:06;;;;;;;6.53;2.95;;;;;;;8.22;62.94;100085.72;4933772;28;20043;-88
2023/04/27 00:57:33;;;;;;;4.60;3.00;;;;;;;8.19;62.31;100085.09;4929285;28;20047;-88
2023/04/27 01:00:01;;;;;;;5.13;3.17;;;;;;;8.16;62.67;100080.88;4929323;28;20047;-88
2023/04/27 01:02:28;;;;;;;4.60;2.60;;;;;;;8.18;61.59;100081.59;4956936;28;20043;-88
2023/04/27 01:04:56;;;;;;;8.88;3.03;;;;;;;8.13;61.88;100080.28;4942329;28;20077;-89
2023/04/27 01:07:25;;;;;;;5.82;3.20;;;;;;;8.06;62.25;100087.81;4942653;28;20058;-88
2023/04/27 01:09:52;;;;;;;7.80;3.15;;;;;;;8.05;63.23;100086.13;4947817;28;20046;-88
2023/04/27 01:12:19;;;;;;;6.75;3.03;;;;;;;8.04;63.03;100080.00;4916297;28;20078;-88
2023/04/27 01:14:47;;;;;;;5.75;3.78;;;;;;;7.97;62.97;100084.06;4931188;28;20455;-88
2023/04/27 01:17:14;;;;;;;4.80;3.10;;;;;;;7.97;62.86;100089.34;4947251;28;20447;-89
2023/04/27 01:19:41;;;;;;;4.75;3.00;;;;;;;7.97;63.22;100091.16;4936737;28;20047;-89
2023/04/27 01:22:09;;;;;;;6.07;2.90;;;;;;;7.98;63.04;100098.94;4963698;28;20069;-90
2023/04/27 01:24:36;;;;;;;8.48;3.13;;;;;;;7.88;62.57;100097.09;4930367;28;20043;-88
2023/04/27 01:27:04;;;;;;;4.13;2.92;;;;;;;7.91;62.82;100097.72;4917126;28;20105;-89
2023/04/27 01:29:31;;;;;;;6.97;3.20;;;;;;;7.96;62.00;100097.38;4917695;28;20562;-89
2023/04/27 01:31:58;;;;;;;4.50;2.83;;;;;;;7.93;62.34;100092.31;4915314;28;20054;-88
2023/04/27 01:34:25;;;;;;;5.50;3.20;;;;;;;7.94;62.72;100100.16;4945569;28;20372;-89
2023/04/27 01:36:52;;;;;;;5.70;2.83;;;;;;;7.93;62.96;100092.31;4944807;28;20050;-89
2023/04/27 01:39:20;;;;;;;3.75;2.67;;;;;;;7.80;63.26;100095.00;4917331;28;20057;-89
2023/04/27 01:41:47;;;;;;;6.47;2.70;;;;;;;7.78;62.99;100092.47;4929578;28;20047;-89
2023/04/27 01:44:14;;;;;;;8.68;3.13;;;;;;;7.89;62.69;100093.50;4948453;28;20118;-88
2023/04/27 01:46:40;;;;;;;6.95;3.20;;;;;;;7.72;63.08;100094.72;4933871;28;20046;-89
2023/04/27 01:49:07;;;;;;;4.90;2.60;;;;;;;7.80;62.18;100100.28;4927201;28;20049;-88
2023/04/27 01:51:34;;;;;;;13.32;3.25;;;;;;;7.75;62.31;100100.63;4957790;28;20047;-88
2023/04/27 01:54:01;;;;;;;7.93;3.05;;;;;;;7.75;62.42;100095.34;4929981;28;20051;-88
2023/04/27 01:56:28;;;;;;;13.25;3.17;;;;;;;7.83;61.67;100094.78;4929456;28;20070;-88
2023/04/27 01:58:55;;;;;;;8.63;3.35;;;;;;;7.71;62.69;100100.94;4918882;28;20414;-89
2023/04/27 02:01:23;;;;;;;5.30;2.90;;;;;;;7.67;61.84;100105.63;4960797;28;20062;-88
2023/04/27 02:03:50;;;;;;;6.63;3.28;;;;;;;7.68;62.26;100099.38;4944565;28;20043;-88
2023/04/27 02:06:17;;;;;;;7.45;3.38;;;;;;;7.65;62.76;100102.25;4955010;28;20047;-88
2023/04/27 02:08:45;;;;;;;7.68;3.28;;;;;;;7.53;63.56;100104.00;4917119;28;20117;-88
2023/04/27 02:11:12;;;;;;;5.15;2.80;;;;;;;7.52;63.78;100107.56;4935456;28;20039;-88
2023/04/27 02:13:39;;;;;;;5.78;3.20;;;;;;;7.56;63.26;100103.75;4927287;28;20042;-88
2023/04/27 02:16:06;;;;;;;7.53;3.20;;;;;;;7.57;63.53;100101.97;4946227;28;20043;-88
2023/04/27 02:18:33;;;;;;;6.35;2.80;;;;;;;7.51;63.55;100097.97;4947480;28;20473;-89
2023/04/27 02:21:01;;;;;;;6.25;3.30;;;;;;;7.49;63.87;100102.50;4931565;28;20046;-90
2023/04/27 02:23:27;;;;;;;7.20;3.25;;;;;;;7.53;63.70;100111.91;4916702;28;20043;-89
2023/04/27 02:25:54;;;;;;;5.30;2.90;;;;;;;7.52;63.74;100106.72;4930976;28;20046;-88
2023/04/27 02:28:21;;;;;;;10.00;4.38;;;;;;;7.56;63.06;100106.41;4926949;28;20486;-89
2023/04/27 02:30:48;;;;;;;4.13;2.85;;;;;;;7.48;62.44;100106.13;4929244;28;20039;-89
2023/04/27 02:33:15;;;;;;;6.22;3.08;;;;;;;7.48;62.44;100108.75;4926802;28;20062;-88
2023/04/27 02:35:42;;;;;;;11.15;3.58;;;;;;;7.57;62.37;100109.88;4916216;28;20051;-89
2023/04/27 02:38:09;;;;;;;5.90;3.20;;;;;;;7.63;61.86;100112.06;4947960;28;20047;-88
2023/04/27 02:40:37;;;;;;;9.00;3.22;;;;;;;7.62;61.80;100123.63;4945743;28;20497;-88
2023/04/27 02:43:05;;;;;;;7.85;3.30;;;;;;;7.58;61.79;100123.00;4908571;28;20450;-87
2023/04/27 02:45:36;;;;;;;9.00;3.30;;;;;;;7.62;61.61;100118.31;4929392;28;20538;-87
2023/04/27 02:48:05;;;;;;;9.18;3.55;;;;;;;7.55;62.18;100123.19;4930987;28;20051;-89
2023/04/27 02:50:33;;;;;;;7.13;3.58;;;;;;;7.54;62.29;100121.53;4944574;28;20049;-88
2023/04/27 02:53:00;;;;;;;7.35;3.15;;;;;;;7.54;63.01;100125.97;4935379;28;20042;-89
2023/04/27 02:55:27;;;;;;;8.98;3.72;;;;;;;7.55;63.01;100122.34;4933015;28;20442;-88
2023/04/27 02:57:54;;;;;;;5.38;3.10;;;;;;;7.49;63.47;100128.94;4948994;28;20394;-89
2023/04/27 03:00:21;;;;;;;5.82;3.03;;;;;;;7.46;64.32;100131.78;4924741;28;20047;-87
2023/04/27 03:02:48;;;;;;;5.65;3.30;;;;;;;7.46;64.34;100136.25;4930956;28;20055;-88
2023/04/27 03:05:15;;;;;;;4.60;2.95;;;;;;;7.47;63.87;100133.47;4945478;28;20047;-88
2023/04/27 03:07:42;;;;;;;5.45;3.03;;;;;;;7.51;63.64;100127.03;4937648;28;20115;-88
2023/04/27 03:10:10;;;;;;;6.10;2.95;;;;;;;7.54;64.10;100133.91;4949140;28;20050;-90
2023/04/27 03:12:36;;;;;;;5.20;2.90;;;;;;;7.53;63.76;100132.19;4955769;28;20153;-89
2023/04/27 03:15:03;;;;;;;6.07;3.38;;;;;;;7.51;64.19;100128.84;4929034;28;20071;-87
2023/04/27 03:17:30;;;;;;;4.78;2.90;;;;;;;7.49;64.41;100121.00;4946378;28;20118;-88
2023/04/27 03:19:57;;;;;;;5.20;2.92;;;;;;;7.49;63.31;100126.28;4944463;28;20491;-88
2023/04/27 03:22:24;;;;;;;6.72;3.28;;;;;;;7.56;63.44;100129.34;4946182;28;20613;-87
2023/04/27 03:24:51;;;;;;;7.70;3.25;;;;;;;7.56;64.48;100130.19;4939965;28;20051;-88
2023/04/27 03:27:18;;;;;;;6.07;3.42;;;;;;;7.52;64.37;100128.72;4930687;28;20059;-89
2023/04/27 03:29:45;;;;;;;5.97;3.60;;;;;;;7.59;63.82;100123.84;4961740;28;20446;-88
2023/04/27 03:32:11;;;;;;;7.43;3.13;;;;;;;7.52;62.35;100123.41;4946450;28;20054;-87
2023/04/27 03:34:39;;;;;;;7.22;3.10;;;;;;;7.58;61.85;100130.94;4949559;28;20048;-89
2023/04/27 03:37:06;;;;;;;5.07;2.83;;;;;;;7.53;62.22;100119.84;4919443;28;20047;-89
2023/04/27 03:39:35;;;;;;;6.00;2.92;;;;;;;7.54;63.10;100125.97;4931087;28;20071;-89
2023/04/27 03:42:03;;;;;;;7.30;3.72;;;;;;;7.46;63.97;100120.38;4912748;28;20034;-89
2023/04/27 03:44:32;;;;;;;5.68;3.67;;;;;;;7.50;63.95;100119.19;4930687;28;20486;-89
2023/04/27 03:47:00;;;;;;;16.10;3.88;;;;;;;7.42;64.62;100114.47;4927448;28;20051;-90
2023/04/27 03:49:27;;;;;;;4.53;2.97;;;;;;;7.44;64.79;100117.84;4946376;28;20067;-89
2023/04/27 03:51:55;;;;;;;6.00;2.90;;;;;;;7.44;65.23;100117.84;4910563;28;20055;-89
2023/04/27 03:54:21;;;;;;;4.38;3.17;;;;;;;7.50;64.97;100127.97;4928259;28;20126;-85
2023/04/27 03:56:48;;;;;;;6.65;3.35;;;;;;;7.52;64.24;100115.50;4947329;28;20114;-84
2023/04/27 03:59:16;;;;;;;9.65;3.40;;;;;;;7.50;64.18;100117.41;4946957;28;20101;-84
2023/04/27 04:01:48;;;;;;;7.82;3.20;;;;;;;7.53;64.35;100122.47;4948929;28;20435;-84
2023/04/27 04:04:15;;;;;;;5.05;2.92;;;;;;;7.48;65.04;100119.31;4928032;28;20042;-85
2023/04/27 04:06:42;;;;;;;5.43;3.50;;;;;;;7.52;65.11;100120.78;4915248;28;20397;-84
2023/04/27 04:09:11;;;;;;;6.60;3.13;;;;;;;7.51;64.98;100116.47;4933637;28;20055;-83
2023/04/27 04:11:39;;;;;;;3.47;3.00;;;;;;;7.44;65.50;100111.72;4958174;28;20055;-81
2023/04/27 04:14:08;;;;;;;5.20;3.20;;;;;;;7.46;65.01;100121.22;4945912;28;20062;-82
2023/04/27 04:16:36;;;;;;;6.07;3.30;;;;;;;7.49;65.52;100125.44;4934374;28;20050;-83
2023/04/27 04:19:03;;;;;;;5.50;3.25;;;;;;;7.43;65.96;100124.09;4944303;28;20050;-83
2023/04/27 04:21:30;;;;;;;7.00;3.50;;;;;;;7.52;64.77;100123.41;4946494;28;20074;-82
2023/04/27 04:23:57;;;;;;;5.75;3.53;;;;;;;7.47;65.22;100128.19;4943211;28;20074;-83
2023/04/27 04:26:24;;;;;;;5.97;3.33;;;;;;;7.55;65.28;100128.47;4932501;28;20410;-84
2023/04/27 04:28:51;;;;;;;5.65;3.42;;;;;;;7.56;65.33;100121.41;4963273;28;20055;-86
2023/04/27 04:31:20;;;;;;;6.40;3.25;;;;;;;7.55;65.33;100125.84;4915753;28;20422;-82
2023/04/27 04:33:47;;;;;;;5.90;3.38;;;;;;;7.51;65.54;100121.75;4944602;28;20047;-84
2023/04/27 04:36:14;;;;;;;5.28;3.22;;;;;;;7.60;65.48;100128.16;4946525;28;20047;-83
2023/04/27 04:38:41;;;;;;;7.22;3.13;;;;;;;7.64;65.48;100127.00;4946150;28;20046;-83
2023/04/27 04:41:09;;;;;;;8.43;3.85;;;;;;;7.57;65.73;100117.81;4955208;28;20612;-83
2023/04/27 04:43:36;;;;;;;8.73;3.45;;;;;;;7.56;65.30;100113.50;4962907;28;20043;-84
2023/04/27 04:46:05;;;;;;;7.13;3.67;;;;;;;7.59;65.60;100123.84;4947539;28;20047;-83
2023/04/27 04:48:33;;;;;;;8.35;3.35;;;;;;;7.55;65.19;100120.56;4927501;28;21072;-84
2023/04/27 04:51:00;;;;;;;6.00;3.30;;;;;;;7.60;65.58;100125.53;4942588;28;20145;-84
2023/04/27 04:53:28;;;;;;;6.70;3.50;;;;;;;7.50;66.52;100130.59;4932763;28;20050;-84
2023/04/27 04:55:54;;;;;;;6.43;3.50;;;;;;;7.62;65.40;100128.91;4947711;28;20070;-84
2023/04/27 04:58:21;;;;;;;7.43;3.13;;;;;;;7.53;66.40;100133.06;4926727;28;20541;-84
2023/04/27 05:00:48;;;;;;;8.10;3.83;;;;;;;7.61;65.98;100136.00;4946081;28;20070;-84
2023/04/27 05:03:15;;;;;;;9.52;3.92;;;;;;;7.66;65.79;100140.94;4949900;28;20148;-84
2023/04/27 05:05:42;;;;;;;7.57;4.60;;;;;;;7.73;65.26;100144.81;4956401;28;20384;-84
2023/04/27 05:08:08;;;;;;;11.90;3.67;;;;;;;7.76;64.06;100143.75;4939904;28;20817;-84
2023/04/27 05:10:35;;;;;;;9.23;3.80;;;;;;;7.73;63.87;100149.28;4962762;28;20097;-84
2023/04/27 05:13:02;;;;;;;6.93;3.53;;;;;;;7.78;63.82;100150.63;4948494;28;20098;-83
2023/04/27 05:15:32;;;;;;;8.18;4.00;;;;;;;7.83;63.77;100147.66;4957713;28;20040;-84
2023/04/27 05:17:58;;;;;;;5.18;3.72;;;;;;;7.82;63.42;100143.34;4960609;28;20062;-84
2023/04/27 05:20:25;;;;;;;8.85;3.97;;;;;;;7.85;63.97;100140.47;4957443;28;20105;-84
2023/04/27 05:22:52;;;;;;;9.38;4.25;;;;;;;7.76;64.42;100141.97;4956711;28;21564;-84
2023/04/27 05:25:18;;;;;;;5.47;3.60;;;;;;;7.89;64.65;100143.75;4939586;28;20061;-83
2023/04/27 05:27:45;;;;;;;10.77;4.28;;;;;;;7.88;64.93;100139.41;4947175;28;20051;-84
2023/04/27 05:30:12;;;;;;;9.13;3.85;;;;;;;7.94;64.67;100137.16;4943554;28;20043;-84
2023/04/27 05:32:39;;;;;;;10.20;4.03;;;;;;;7.98;64.66;100141.25;4949422;28;20046;-84
2023/04/27 05:35:06;;;;;;;8.80;3.80;;;;;;;7.98;64.91;100138.63;4947975;28;20453;-83
2023/04/27 05:37:32;;;;;;;7.43;4.10;;;;;;;8.02;65.20;100141.91;4956373;28;20053;-84
2023/04/27 05:39:59;;;;;;;8.63;4.63;;;;;;;8.09;65.22;100142.28;4953262;28;20487;-84
2023/04/27 05:42:26;;;;;;;9.93;4.97;;;;;;;8.13;65.00;100136.66;4940810;28;20094;-83
2023/04/27 05:44:53;;;;;;;10.52;5.25;;;;;;;8.17;65.09;100137.28;4959890;28;20118;-83
2023/04/27 05:47:20;;;;;;;8.10;4.90;;;;;;;8.15;65.02;100136.56;4949212;28;20402;-84
2023/04/27 05:49:51;;;;;;;9.40;4.80;;;;;;;8.09;64.69;100144.91;4964460;28;20376;-83
2023/04/27 05:52:18;;;;;;;9.43;4.57;;;;;;;8.14;64.26;100150.72;4947168;28;20130;-84
2023/04/27 05:54:49;;;;;;;6.90;5.10;;;;;;;8.14;64.74;100150.72;4960344;28;20054;-84
2023/04/27 05:57:16;;;;;;;9.90;5.45;;;;;;;8.23;64.49;100164.13;4957939;28;20494;-84
2023/04/27 05:59:42;;;;;;;10.90;5.43;;;;;;;8.27;64.43;100167.41;4944006;28;20546;-84
2023/04/27 06:02:09;;;;;;;10.32;5.20;;;;;;;8.24;64.24;100157.00;4945600;28;20045;-83
2023/04/27 06:04:37;;;;;;;9.38;5.03;;;;;;;8.29;64.32;100156.69;4927280;28;20039;-83
2023/04/27 06:07:08;;;;;;;10.38;4.90;;;;;;;8.27;65.22;100167.41;4963962;28;20129;-84
2023/04/27 06:09:36;;;;;;;12.88;4.72;;;;;;;8.34;64.97;100159.84;4956832;28;20051;-84
2023/04/27 06:12:04;;;;;;;10.43;4.85;;;;;;;8.42;64.69;100161.00;4946509;28;20058;-84
2023/04/27 06:14:32;;;;;;;7.55;4.35;;;;;;;8.43;64.45;100162.69;4955111;28;20046;-84
2023/04/27 06:16:58;;;;;;;9.27;4.72;;;;;;;8.51;64.58;100164.75;4956423;28;20402;-84
2023/04/27 06:19:25;;;;;;;12.90;5.90;;;;;;;8.52;63.77;100160.31;4943073;28;20086;-83
2023/04/27 06:21:53;;;;;;;11.20;4.97;;;;;;;8.64;63.42;100165.53;4942721;28;20057;-84
2023/04/27 06:24:21;;;;;;;9.68;4.13;;;;;;;8.62;63.42;100161.28;4944545;28;20105;-83
2023/04/27 06:26:48;;;;;;;12.00;4.18;;;;;;;8.67;62.54;100167.94;4939871;28;20049;-83
2023/04/27 06:29:15;;;;;;;9.27;4.85;;;;;;;8.71;62.64;100159.78;4957162;28;20047;-84
2023/04/27 06:31:42;;;;;;;9.40;3.78;;;;;;;8.73;61.40;100169.28;4961686;28;20486;-84
2023/04/27 06:34:08;;;;;;;8.65;3.80;;;;;;;8.89;61.79;100177.75;4946551;28;20573;-84
2023/04/27 06:36:35;;;;;;;9.43;3.92;;;;;;;9.00;61.36;100176.94;4959270;28;20468;-84
2023/04/27 06:39:02;;;;;;;7.75;3.53;;;;;;;9.00;60.75;100173.44;4939999;28;20068;-84
2023/04/27 06:41:29;;;;;;;9.30;3.97;;;;;;;9.07;59.94;100169.38;4940988;28;20388;-84
2023/04/27 06:43:56;;;;;;;9.50;3.67;;;;;;;9.13;59.36;100172.41;4954594;28;20061;-83
2023/04/27 06:46:24;;;;;;;8.57;3.60;;;;;;;9.22;59.19;100180.59;4929700;28;20057;-84
2023/04/27 06:48:52;;;;;;;9.48;3.33;;;;;;;9.18;58.58;100179.97;4956347;28;20043;-83
2023/04/27 06:51:18;;;;;;;15.82;4.68;;;;;;;9.26;58.59;100180.25;4941582;28;20134;-83
2023/04/27 06:53:45;;;;;;;8.32;3.80;;;;;;;9.35;58.72;100171.56;4967614;28;20502;-84
2023/04/27 06:56:12;;;;;;;7.55;3.92;;;;;;;9.31;58.01;100178.09;4930997;28;20086;-83
2023/04/27 06:58:38;;;;;;;8.27;3.22;;;;;;;9.34;58.00;100177.00;4961602;28;20051;-84
2023/04/27 07:01:05;;;;;;;13.18;3.58;;;;;;;9.39;57.85;100176.63;4960749;28;20047;-84
2023/04/27 07:03:35;;;;;;;9.30;4.07;;;;;;;9.41;57.51;100180.00;4950280;28;20039;-83
2023/04/27 07:06:03;;;;;;;9.02;3.67;;;;;;;9.41;57.81;100178.19;4965941;28;20050;-84
2023/04/27 07:08:29;;;;;;;9.13;4.00;;;;;;;9.51;57.85;100175.66;4944768;28;20098;-83
2023/04/27 07:10:56;;;;;;;8.18;3.72;;;;;;;9.58;57.69;100176.88;4947047;28;20043;-84
2023/04/27 07:13:23;;;;;;;11.20;3.95;;;;;;;9.68;57.68;100187.59;4956497;28;20446;-84
2023/04/27 07:15:56;;;;;;;9.20;3.80;;;;;;;9.69;57.05;100186.63;4953363;28;20047;-83
2023/04/27 07:18:23;;;;;;;8.07;3.92;;;;;;;9.75;57.30;100188.81;4969187;28;20126;-84
2023/04/27 07:20:50;;;;;;;7.13;3.42;;;;;;;9.81;57.67;100182.16;4939991;28;20047;-84
2023/04/27 07:23:16;;;;;;;10.20;3.58;;;;;;;9.86;57.16;100182.63;4936855;28;20047;-84
2023/04/27 07:25:44;;;;;;;6.97;3.20;;;;;;;9.89;56.71;100180.56;4928197;28;20070;-84
2023/04/27 07:28:11;;;;;;;7.30;4.32;;;;;;;9.95;56.49;100179.25;4943309;28;20078;-84
2023/04/27 07:30:38;;;;;;;7.45;3.95;;;;;;;10.02;56.56;100185.72;4948462;28;20117;-83
2023/04/27 07:33:05;;;;;;;10.13;3.80;;;;;;;10.06;56.40;100181.03;4964071;28;20062;-83
2023/04/27 07:35:32;;;;;;;8.55;3.63;;;;;;;10.10;56.50;100190.41;4951837;28;20394;-84
2023/04/27 07:38:02;;;;;;;9.02;3.42;;;;;;;10.12;56.34;100186.69;4948839;28;20077;-84
2023/04/27 07:40:31;;;;;;;8.43;3.60;;;;;;;10.17;56.37;100181.84;4960953;28;20047;-84
2023/04/27 07:42:58;;;;;;;6.97;3.22;;;;;;;10.22;56.22;100173.50;4942868;28;20054;-84
2023/04/27 07:45:31;;;;;;;10.32;4.10;;;;;;;10.26;56.34;100174.97;4932994;28;20413;-83
2023/04/27 07:47:59;;;;;;;8.85;3.90;;;;;;;10.32;56.25;100178.94;4956116;28;20051;-83
2023/04/27 07:50:29;;;;;;;9.77;3.92;;;;;;;10.33;56.17;100176.19;4942864;28;20043;-83
2023/04/27 07:52:56;;;;;;;7.25;3.70;;;;;;;10.37;56.33;100174.09;4928261;28;20515;-83
2023/04/27 07:55:24;;;;;;;7.10;3.47;;;;;;;10.40;56.04;100177.34;4962719;28;20101;-83
2023/04/27 07:57:55;;;;;;;9.32;4.78;;;;;;;10.42;56.00;100183.38;4966253;28;20513;-84
2023/04/27 08:00:24;;;;;;;8.43;4.10;;;;;;;10.45;56.11;100182.28;4961824;28;20505;-83
2023/04/27 08:02:53;;;;;;;7.97;4.03;;;;;;;10.48;55.91;100178.53;4958852;28;20112;-83
2023/04/27 08:05:21;;;;;;;8.93;3.72;;;;;;;10.48;56.12;100182.03;4933295;28;20055;-84
2023/04/27 08:07:48;;;;;;;10.80;4.88;;;;;;;10.48;56.22;100178.53;4935294;28;20058;-83
2023/04/27 08:10:15;;;;;;;9.27;3.63;;;;;;;10.51;56.17;100167.66;4950123;28;20553;-84
2023/04/27 08:12:42;;;;;;;7.88;3.90;;;;;;;10.54;56.41;100167.41;4958554;28;20078;-84
2023/04/27 08:15:09;;;;;;;8.77;4.00;;;;;;;10.56;56.33;100174.28;4958543;28;20075;-84
2023/04/27 08:17:39;;;;;;;6.55;3.70;;;;;;;10.58;56.29;100166.16;4943302;28;20098;-83
2023/04/27 08:20:10;;;;;;;8.55;3.92;;;;;;;10.59;56.33;100160.75;4928739;28;20629;-84
2023/04/27 08:22:37;;;;;;;7.38;4.10;;;;;;;10.65;56.46;100157.56;4957107;28;20265;-83
2023/04/27 08:25:06;;;;;;;6.65;3.38;;;;;;;10.68;56.86;100159.13;4946801;28;20048;-84
2023/04/27 08:27:33;;;;;;;9.35;4.13;;;;;;;10.72;56.91;100157.06;4914209;28;20102;-83
2023/04/27 08:30:00;;;;;;;8.05;4.10;;;;;;;10.77;56.60;100157.53;4945174;28;20051;-84
2023/04/27 08:32:29;;;;;;;8.88;3.92;;;;;;;10.81;56.51;100146.50;4945064;28;20078;-84
2023/04/27 08:34:56;;;;;;;9.18;4.50;;;;;;;10.89;55.74;100147.66;4946338;28;20058;-84
2023/04/27 08:37:22;;;;;;;7.22;4.25;;;;;;;10.94;55.94;100151.63;4958718;28;20053;-83
2023/04/27 08:39:49;;;;;;;10.52;4.05;;;;;;;10.96;55.59;100151.47;4956700;28;20442;-84
2023/04/27 08:42:16;;;;;;;9.27;4.13;;;;;;;10.98;55.66;100147.72;4949013;28;20058;-83
2023/04/27 08:44:43;;;;;;;8.20;4.07;;;;;;;11.04;55.45;100147.22;4932523;28;20075;-83
2023/04/27 08:47:10;;;;;;;8.48;3.45;;;;;;;11.07;55.33;100146.09;4956490;28;20054;-84
2023/04/27 08:49:37;;;;;;;5.75;3.42;;;;;;;11.11;55.26;100138.69;4910909;28;20050;-84
2023/04/27 08:52:13;;;;;;;7.78;3.45;;;;;;;11.13;55.48;100134.09;4955778;28;20035;-84
2023/04/27 08:54:39;;;;;;;7.68;3.53;;;;;;;11.20;55.34;100132.59;4961733;28;20109;-83
2023/04/27 08:57:13;;;;;;;5.95;3.72;;;;;;;11.22;55.38;100133.28;4946159;28;20076;-84
2023/04/27 08:59:40;;;;;;;6.45;3.97;;;;;;;11.27;55.10;100137.25;4941853;28;20103;-84
2023/04/27 09:02:20;;;;;;;7.90;3.70;;;;;;;11.26;54.48;100135.56;4947004;28;20079;-83
2023/04/27 09:04:46;;;;;;;7.00;3.67;;;;;;;11.32;54.90;100134.19;4916961;28;20451;-83
2023/04/27 09:07:15;;;;;;;7.60;3.60;;;;;;;11.34;54.47;100134.91;4962653;28;20086;-83
2023/04/27 09:09:43;;;;;;;5.10;3.80;;;;;;;11.41;54.94;100135.22;4948509;28;20051;-83
2023/04/27 09:12:20;;;;;;;8.07;3.47;;;;;;;11.38;53.62;100136.31;4944473;28;20098;-84
2023/04/27 09:14:56;;;;;;;7.40;3.75;;;;;;;11.42;53.51;100131.56;4964913;28;20042;-83
2023/04/27 09:17:25;;;;;;;7.53;3.40;;;;;;;11.54;54.39;100124.34;4956065;28;20051;-84
2023/04/27 09:20:03;;;;;;;8.10;3.60;;;;;;;11.60;54.66;100129.09;4928311;28;20578;-83
2023/04/27 09:22:30;;;;;;;8.30;3.28;;;;;;;11.61;54.13;100122.84;4956844;28;20101;-83
2023/04/27 09:24:57;;;;;;;6.20;3.63;;;;;;;11.64;53.77;100128.72;4944362;28;20130;-84
2023/04/27 09:27:23;;;;;;;10.27;3.80;;;;;;;11.69;53.56;100134.47;4964128;28;20102;-83
2023/04/27 09:29:50;;;;;;;8.80;3.58;;;;;;;11.74;54.02;100129.59;4929896;28;20043;-83
2023/04/27 09:32:19;;;;;;;7.70;3.75;;;;;;;11.78;53.82;100131.97;4940672;28;20116;-84
2023/04/27 09:34:46;;;;;;;6.72;3.30;;;;;;;11.80;53.82;100130.84;4941006;28;20536;-84
2023/04/27 09:37:13;;;;;;;9.90;3.95;;;;;;;11.84;53.72;100124.28;4954478;28;20039;-83
2023/04/27 09:39:41;;;;;;;6.88;3.63;;;;;;;11.87;53.68;100129.38;4957892;28;20049;-84
2023/04/27 09:42:10;;;;;;;7.35;3.95;;;;;;;11.92;53.92;100123.63;4954192;28;20058;-84
2023/04/27 09:44:37;;;;;;;10.27;3.50;;;;;;;11.97;53.92;100113.41;4971832;28;20058;-84
2023/04/27 09:47:05;;;;;;;9.43;4.18;;;;;;;12.00;53.81;100120.28;4933566;28;20043;-84
2023/04/27 09:49:33;;;;;;;7.32;3.60;;;;;;;12.01;53.64;100120.16;4945506;28;20062;-84
2023/04/27 09:52:00;;;;;;;8.15;3.60;;;;;;;12.08;53.19;100113.28;4962937;28;20522;-83
2023/04/27 09:54:29;;;;;;;8.63;3.70;;;;;;;12.08;51.04;100110.63;4943231;28;20057;-83
2023/04/27 09:57:08;;;;;;;4.07;2.70;;;;;;;12.08;51.52;100105.28;4948469;28;20097;-83
2023/04/27 09:59:39;;;;;;;6.03;2.67;;;;;;;12.08;51.50;100099.13;4958080;28;20483;-84
2023/04/27 10:02:06;;;;;;;8.18;3.28;;;;;;;12.11;52.33;100101.50;4942919;28;20087;-83
2023/04/27 10:04:52;;;;;;;12.63;4.03;;;;;;;12.12;52.51;100100.56;4944244;28;20509;-83
2023/04/27 10:07:19;;;;;;;5.45;3.53;;;;;;;12.17;52.64;100095.66;4964425;28;20078;-83
2023/04/27 10:09:48;;;;;;;8.13;3.97;;;;;;;12.24;52.63;100099.44;4942414;28;20042;-84
2023/04/27 10:12:21;;;;;;;9.82;4.05;;;;;;;12.24;52.56;100110.09;4910928;28;20047;-83
2023/04/27 10:14:56;;;;;;;11.18;3.97;;;;;;;12.34;53.34;100112.75;4942949;28;20047;-84
2023/04/27 10:17:33;;;;;;;9.18;3.58;;;;;;;12.29;52.13;100102.53;4938033;28;20463;-83
2023/04/27 10:20:08;;;;;;;5.30;3.28;;;;;;;12.37;52.06;100099.16;4958214;28;20034;-84
2023/04/27 10:22:42;;;;;;;11.50;3.85;;;;;;;12.38;52.27;100107.00;4953396;28;20050;-84
2023/04/27 10:25:15;;;;;;;5.28;3.25;;;;;;;12.40;51.88;100103.38;4966121;28;20419;-84
2023/04/27 10:27:41;;;;;;;;;;;;;;;12.26;50.98;100105.47;4972082;28;20487;-84
2023/04/27 10:30:12;;;;;;;6.88;3.90;;;;;;;12.42;52.48;100107.56;4931352;28;19976;-84
2023/04/27 10:32:58;;;;;;;5.78;2.95;;;;;;;12.45;52.70;100111.78;4950778;28;20165;-83
2023/04/27 10:35:39;;;;;;;7.07;3.42;;;;;;;12.46;51.92;100106.28;4964398;28;20043;-83
2023/04/27 10:38:16;;;;;;;8.10;3.60;;;;;;;12.54;52.19;100102.91;4946932;28;20047;-84
2023/04/27 10:41:04;;;;;;;9.00;3.20;;;;;;;12.58;52.35;100099.81;4970121;28;20055;-83
2023/04/27 10:43:33;;;;;;;9.70;3.53;;;;;;;12.58;51.47;100107.81;4934151;28;20402;-83
2023/04/27 10:46:07;;;;;;;6.00;3.10;;;;;;;12.58;52.00;100105.16;4940039;28;20055;-83
2023/04/27 10:48:34;;;;;;;13.27;3.55;;;;;;;12.67;52.38;100102.63;4938500;28;20042;-84
2023/04/27 10:51:02;;;;;;;8.00;3.47;;;;;;;12.73;51.52;100104.72;4927415;28;20047;-84
2023/04/27 10:53:34;;;;;;;6.45;3.28;;;;;;;12.71;51.06;100096.88;4928487;28;20135;-83
2023/04/27 10:56:01;;;;;;;9.45;4.15;;;;;;;12.72;51.46;100087.03;4960518;28;20058;-83
2023/04/27 10:58:28;;;;;;;6.05;3.47;;;;;;;12.76;51.67;100093.78;4957360;28;20125;-84
2023/04/27 11:01:22;;;;;;;9.48;3.40;;;;;;;12.75;51.21;100095.59;4933292;28;20207;-84
2023/04/27 11:03:55;;;;;;;8.27;3.40;;;;;;;12.84;51.19;100088.56;4952342;28;20502;-84
2023/04/27 11:06:22;;;;;;;5.82;3.42;;;;;;;12.88;51.55;100087.28;4917369;28;20054;-84
2023/04/27 11:08:48;;;;;;;5.80;3.42;;;;;;;12.94;51.18;100081.38;4953795;28;20046;-84
2023/04/27 11:11:16;;;;;;;11.85;4.53;;;;;;;12.99;51.76;100075.63;4946847;28;20126;-84
2023/04/27 11:13:43;;;;;;;9.05;3.22;;;;;;;13.02;51.54;100070.00;4950164;28;20051;-85
2023/04/27 11:16:10;;;;;;;4.75;2.72;;;;;;;13.01;51.36;100068.31;4938405;28;20054;-84
2023/04/27 11:18:37;;;;;;;3.13;2.47;;;;;;;13.04;51.22;100070.69;4957382;28;20051;-84
2023/04/27 11:21:15;;;;;;;9.73;3.30;;;;;;;12.99;49.84;100072.94;4947677;28;20051;-84
2023/04/27 11:23:42;;;;;;;9.82;3.13;;;;;;;13.04;51.07;100066.19;4929815;28;20045;-84
2023/04/27 11:26:10;;;;;;;3.53;2.85;;;;;;;13.05;51.00;100067.03;4929588;28;20049;-83
2023/04/27 11:28:37;;;;;;;3.78;2.80;;;;;;;13.06;50.72;100065.22;4947641;28;20061;-84
2023/04/27 11:31:05;;;;;;;5.40;2.90;;;;;;;13.07;50.41;100073.06;4945788;28;20047;-84
2023/04/27 11:33:32;;;;;;;4.45;3.13;;;;;;;13.06;49.78;100065.22;4967862;28;20136;-84